sensor_id;sensor_type;location;lat;lon;timestamp;temperature;humidity
78541;SHT31;67835;51.968;5.646;2023-11-19T00:00:37;16.1;76.0
78541;SHT31;67835;51.968;5.646;2023-11-19T00:03:05;16.1;75.9
78541;SHT31;67835;51.968;5.646;2023-11-19T00:05:34;16.1;75.7
78541;SHT31;67835;51.968;5.646;2023-11-19T00:08:03;16.2;75.7
78541;SHT31;67835;51.968;5.646;2023-11-19T00:10:32;16.1;75.7
78541;SHT31;67835;51.968;5.646;2023-11-19T00:13:01;16.1;75.7
78541;SHT31;67835;51.968;5.646;2023-11-19T00:15:31;16.1;75.7
78541;SHT31;67835;51.968;5.646;2023-11-19T00:18:00;16.1;75.8
78541;SHT31;67835;51.968;5.646;2023-11-19T00:20:32;16.1;75.7
78541;SHT31;67835;51.968;5.646;2023-11-19T00:23:02;16.1;75.7
78541;SHT31;67835;51.968;5.646;2023-11-19T00:25:30;16.2;75.5
78541;SHT31;67835;51.968;5.646;2023-11-19T00:27:59;16.2;75.5
78541;SHT31;67835;51.968;5.646;2023-11-19T00:30:28;16.2;75.4
78541;SHT31;67835;51.968;5.646;2023-11-19T00:32:57;16.2;75.2
78541;SHT31;67835;51.968;5.646;2023-11-19T00:35:29;16.2;75.1
78541;SHT31;67835;51.968;5.646;2023-11-19T00:37:58;16.2;75.1
78541;SHT31;67835;51.968;5.646;2023-11-19T00:40:27;16.2;75.0
78541;SHT31;67835;51.968;5.646;2023-11-19T00:42:56;16.3;74.7
78541;SHT31;67835;51.968;5.646;2023-11-19T00:45:24;16.3;74.5
78541;SHT31;67835;51.968;5.646;2023-11-19T00:47:54;16.3;74.3
78541;SHT31;67835;51.968;5.646;2023-11-19T00:50:25;16.3;74.4
78541;SHT31;67835;51.968;5.646;2023-11-19T00:52:56;16.3;74.2
78541;SHT31;67835;51.968;5.646;2023-11-19T00:55:25;16.3;74.1
78541;SHT31;67835;51.968;5.646;2023-11-19T00:57:55;16.3;74.0
78541;SHT31;67835;51.968;5.646;2023-11-19T01:00:25;16.3;74.1
78541;SHT31;67835;51.968;5.646;2023-11-19T01:02:54;16.3;74.1
78541;SHT31;67835;51.968;5.646;2023-11-19T01:05:24;16.3;73.9
78541;SHT31;67835;51.968;5.646;2023-11-19T01:07:58;16.3;73.6
78541;SHT31;67835;51.968;5.646;2023-11-19T01:10:27;16.3;73.8
78541;SHT31;67835;51.968;5.646;2023-11-19T01:12:56;16.3;73.8
78541;SHT31;67835;51.968;5.646;2023-11-19T01:15:24;16.3;73.7
78541;SHT31;67835;51.968;5.646;2023-11-19T01:17:53;16.3;73.7
78541;SHT31;67835;51.968;5.646;2023-11-19T01:20:21;16.3;73.7
78541;SHT31;67835;51.968;5.646;2023-11-19T01:22:50;16.2;73.7
78541;SHT31;67835;51.968;5.646;2023-11-19T01:25:19;16.2;73.7
78541;SHT31;67835;51.968;5.646;2023-11-19T01:27:48;16.2;73.5
78541;SHT31;67835;51.968;5.646;2023-11-19T01:30:17;16.2;73.4
78541;SHT31;67835;51.968;5.646;2023-11-19T01:32:46;16.2;73.1
78541;SHT31;67835;51.968;5.646;2023-11-19T01:35:16;16.2;73.2
78541;SHT31;67835;51.968;5.646;2023-11-19T01:37:45;16.2;73.1
78541;SHT31;67835;51.968;5.646;2023-11-19T01:40:14;16.2;73.1
78541;SHT31;67835;51.968;5.646;2023-11-19T01:42:44;16.2;73.0
78541;SHT31;67835;51.968;5.646;2023-11-19T01:45:26;16.2;73.1
78541;SHT31;67835;51.968;5.646;2023-11-19T01:47:58;16.2;73.0
78541;SHT31;67835;51.968;5.646;2023-11-19T01:50:29;16.2;72.9
78541;SHT31;67835;51.968;5.646;2023-11-19T01:53:02;16.2;73.1
78541;SHT31;67835;51.968;5.646;2023-11-19T01:55:32;16.2;73.1
78541;SHT31;67835;51.968;5.646;2023-11-19T01:58:01;16.2;73.0
78541;SHT31;67835;51.968;5.646;2023-11-19T02:00:30;16.2;72.8
78541;SHT31;67835;51.968;5.646;2023-11-19T02:03:02;16.2;72.7
78541;SHT31;67835;51.968;5.646;2023-11-19T02:05:34;16.1;72.4
78541;SHT31;67835;51.968;5.646;2023-11-19T02:08:04;16.1;72.4
78541;SHT31;67835;51.968;5.646;2023-11-19T02:10:34;16.1;72.1
78541;SHT31;67835;51.968;5.646;2023-11-19T02:13:03;16.1;72.0
78541;SHT31;67835;51.968;5.646;2023-11-19T02:15:34;16.0;72.0
78541;SHT31;67835;51.968;5.646;2023-11-19T02:18:20;16.0;72.1
78541;SHT31;67835;51.968;5.646;2023-11-19T02:20:50;16.0;71.8
78541;SHT31;67835;51.968;5.646;2023-11-19T02:23:20;16.0;72.1
78541;SHT31;67835;51.968;5.646;2023-11-19T02:26:02;15.9;72.0
78541;SHT31;67835;51.968;5.646;2023-11-19T02:28:36;15.9;72.2
78541;SHT31;67835;51.968;5.646;2023-11-19T02:31:08;15.9;72.1
78541;SHT31;67835;51.968;5.646;2023-11-19T02:33:38;15.9;71.6
78541;SHT31;67835;51.968;5.646;2023-11-19T02:36:08;15.9;71.4
78541;SHT31;67835;51.968;5.646;2023-11-19T02:38:38;15.9;71.2
78541;SHT31;67835;51.968;5.646;2023-11-19T02:41:07;15.8;71.2
78541;SHT31;67835;51.968;5.646;2023-11-19T02:43:37;15.8;71.2
78541;SHT31;67835;51.968;5.646;2023-11-19T02:46:06;15.7;71.1
78541;SHT31;67835;51.968;5.646;2023-11-19T02:48:35;15.7;71.2
78541;SHT31;67835;51.968;5.646;2023-11-19T02:51:05;15.7;71.2
78541;SHT31;67835;51.968;5.646;2023-11-19T02:53:37;15.6;71.2
78541;SHT31;67835;51.968;5.646;2023-11-19T02:56:08;15.6;71.1
78541;SHT31;67835;51.968;5.646;2023-11-19T02:58:45;15.5;71.0
78541;SHT31;67835;51.968;5.646;2023-11-19T03:01:25;15.5;71.0
78541;SHT31;67835;51.968;5.646;2023-11-19T03:03:57;15.4;71.2
78541;SHT31;67835;51.968;5.646;2023-11-19T03:06:27;15.4;71.2
78541;SHT31;67835;51.968;5.646;2023-11-19T03:08:56;15.4;71.5
78541;SHT31;67835;51.968;5.646;2023-11-19T03:11:25;15.3;71.5
78541;SHT31;67835;51.968;5.646;2023-11-19T03:13:53;15.3;71.5
78541;SHT31;67835;51.968;5.646;2023-11-19T03:16:21;15.3;71.9
78541;SHT31;67835;51.968;5.646;2023-11-19T03:18:50;15.3;71.6
78541;SHT31;67835;51.968;5.646;2023-11-19T03:21:19;15.4;71.1
78541;SHT31;67835;51.968;5.646;2023-11-19T03:23:48;15.3;70.8
78541;SHT31;67835;51.968;5.646;2023-11-19T03:26:16;15.3;70.5
78541;SHT31;67835;51.968;5.646;2023-11-19T03:28:44;15.3;70.6
78541;SHT31;67835;51.968;5.646;2023-11-19T03:31:13;15.2;70.6
78541;SHT31;67835;51.968;5.646;2023-11-19T03:33:42;15.1;70.8
78541;SHT31;67835;51.968;5.646;2023-11-19T03:36:12;15.1;71.0
78541;SHT31;67835;51.968;5.646;2023-11-19T03:38:41;15.0;71.2
78541;SHT31;67835;51.968;5.646;2023-11-19T03:41:14;14.9;71.3
78541;SHT31;67835;51.968;5.646;2023-11-19T03:43:43;14.9;71.4
78541;SHT31;67835;51.968;5.646;2023-11-19T03:46:20;14.8;71.6
78541;SHT31;67835;51.968;5.646;2023-11-19T03:48:49;14.7;71.8
78541;SHT31;67835;51.968;5.646;2023-11-19T03:51:18;14.7;71.9
78541;SHT31;67835;51.968;5.646;2023-11-19T03:53:47;14.6;72.0
78541;SHT31;67835;51.968;5.646;2023-11-19T03:56:15;14.6;72.1
78541;SHT31;67835;51.968;5.646;2023-11-19T03:58:44;14.5;72.2
78541;SHT31;67835;51.968;5.646;2023-11-19T04:01:13;14.5;72.3
78541;SHT31;67835;51.968;5.646;2023-11-19T04:03:41;14.4;72.4
78541;SHT31;67835;51.968;5.646;2023-11-19T04:06:10;14.4;72.4
78541;SHT31;67835;51.968;5.646;2023-11-19T04:08:39;14.3;72.4
78541;SHT31;67835;51.968;5.646;2023-11-19T04:11:08;14.3;72.6
78541;SHT31;67835;51.968;5.646;2023-11-19T04:13:36;14.2;72.6
78541;SHT31;67835;51.968;5.646;2023-11-19T04:16:06;14.2;72.5
78541;SHT31;67835;51.968;5.646;2023-11-19T04:18:35;14.1;72.7
78541;SHT31;67835;51.968;5.646;2023-11-19T04:21:05;14.1;72.8
78541;SHT31;67835;51.968;5.646;2023-11-19T04:23:34;14.0;72.9
78541;SHT31;67835;51.968;5.646;2023-11-19T04:26:04;14.0;72.9
78541;SHT31;67835;51.968;5.646;2023-11-19T04:28:33;14.0;72.8
78541;SHT31;67835;51.968;5.646;2023-11-19T04:31:01;13.9;72.7
78541;SHT31;67835;51.968;5.646;2023-11-19T04:33:32;13.9;72.9
78541;SHT31;67835;51.968;5.646;2023-11-19T04:36:01;13.9;73.0
78541;SHT31;67835;51.968;5.646;2023-11-19T04:38:30;13.9;72.9
78541;SHT31;67835;51.968;5.646;2023-11-19T04:40:59;13.9;72.9
78541;SHT31;67835;51.968;5.646;2023-11-19T04:43:28;13.8;72.9
78541;SHT31;67835;51.968;5.646;2023-11-19T04:45:57;13.8;72.9
78541;SHT31;67835;51.968;5.646;2023-11-19T04:48:26;13.8;72.9
78541;SHT31;67835;51.968;5.646;2023-11-19T04:50:54;13.8;72.9
78541;SHT31;67835;51.968;5.646;2023-11-19T04:53:23;13.8;72.8
78541;SHT31;67835;51.968;5.646;2023-11-19T04:55:51;13.7;72.9
78541;SHT31;67835;51.968;5.646;2023-11-19T04:58:20;13.7;72.7
78541;SHT31;67835;51.968;5.646;2023-11-19T05:00:49;13.7;72.7
78541;SHT31;67835;51.968;5.646;2023-11-19T05:03:17;13.7;72.7
78541;SHT31;67835;51.968;5.646;2023-11-19T05:05:46;13.7;72.7
78541;SHT31;67835;51.968;5.646;2023-11-19T05:08:15;13.7;72.8
78541;SHT31;67835;51.968;5.646;2023-11-19T05:10:44;13.6;72.8
78541;SHT31;67835;51.968;5.646;2023-11-19T05:13:12;13.6;72.9
78541;SHT31;67835;51.968;5.646;2023-11-19T05:15:41;13.6;73.1
78541;SHT31;67835;51.968;5.646;2023-11-19T05:18:12;13.6;73.3
78541;SHT31;67835;51.968;5.646;2023-11-19T05:20:40;13.6;73.3
78541;SHT31;67835;51.968;5.646;2023-11-19T05:23:09;13.7;73.1
78541;SHT31;67835;51.968;5.646;2023-11-19T05:25:38;13.7;73.0
78541;SHT31;67835;51.968;5.646;2023-11-19T05:28:06;13.7;72.8
78541;SHT31;67835;51.968;5.646;2023-11-19T05:30:35;13.7;72.5
78541;SHT31;67835;51.968;5.646;2023-11-19T05:33:04;13.7;72.3
78541;SHT31;67835;51.968;5.646;2023-11-19T05:35:34;13.7;72.4
78541;SHT31;67835;51.968;5.646;2023-11-19T05:38:03;13.7;72.4
78541;SHT31;67835;51.968;5.646;2023-11-19T05:40:32;13.7;72.6
78541;SHT31;67835;51.968;5.646;2023-11-19T05:43:01;13.7;72.5
78541;SHT31;67835;51.968;5.646;2023-11-19T05:45:29;13.7;72.4
78541;SHT31;67835;51.968;5.646;2023-11-19T05:48:00;13.7;72.2
78541;SHT31;67835;51.968;5.646;2023-11-19T05:50:30;13.7;72.0
78541;SHT31;67835;51.968;5.646;2023-11-19T05:52:59;13.7;71.9
78541;SHT31;67835;51.968;5.646;2023-11-19T05:55:28;13.7;71.9
78541;SHT31;67835;51.968;5.646;2023-11-19T05:57:57;13.7;71.9
78541;SHT31;67835;51.968;5.646;2023-11-19T06:00:26;13.7;71.9
78541;SHT31;67835;51.968;5.646;2023-11-19T06:02:55;13.7;72.1
78541;SHT31;67835;51.968;5.646;2023-11-19T06:05:23;13.7;72.3
78541;SHT31;67835;51.968;5.646;2023-11-19T06:07:52;13.6;72.3
78541;SHT31;67835;51.968;5.646;2023-11-19T06:10:20;13.6;72.4
78541;SHT31;67835;51.968;5.646;2023-11-19T06:12:50;13.6;72.4
78541;SHT31;67835;51.968;5.646;2023-11-19T06:15:22;13.6;72.5
78541;SHT31;67835;51.968;5.646;2023-11-19T06:17:51;13.6;72.4
78541;SHT31;67835;51.968;5.646;2023-11-19T06:20:19;13.6;72.4
78541;SHT31;67835;51.968;5.646;2023-11-19T06:22:48;13.6;72.5
78541;SHT31;67835;51.968;5.646;2023-11-19T06:25:17;13.5;72.6
78541;SHT31;67835;51.968;5.646;2023-11-19T06:27:45;13.5;72.6
78541;SHT31;67835;51.968;5.646;2023-11-19T06:30:14;13.5;72.7
78541;SHT31;67835;51.968;5.646;2023-11-19T06:32:43;13.5;72.7
78541;SHT31;67835;51.968;5.646;2023-11-19T06:35:13;13.5;72.8
78541;SHT31;67835;51.968;5.646;2023-11-19T06:37:42;13.5;72.8
78541;SHT31;67835;51.968;5.646;2023-11-19T06:40:11;13.4;72.8
78541;SHT31;67835;51.968;5.646;2023-11-19T06:42:42;13.4;72.9
78541;SHT31;67835;51.968;5.646;2023-11-19T06:45:11;13.4;72.9
78541;SHT31;67835;51.968;5.646;2023-11-19T06:47:40;13.4;73.0
78541;SHT31;67835;51.968;5.646;2023-11-19T06:50:09;13.4;72.9
78541;SHT31;67835;51.968;5.646;2023-11-19T06:52:40;13.4;73.0
78541;SHT31;67835;51.968;5.646;2023-11-19T06:55:10;13.4;73.0
78541;SHT31;67835;51.968;5.646;2023-11-19T06:57:39;13.4;73.0
78541;SHT31;67835;51.968;5.646;2023-11-19T07:00:09;13.4;72.8
78541;SHT31;67835;51.968;5.646;2023-11-19T07:02:38;13.4;72.9
78541;SHT31;67835;51.968;5.646;2023-11-19T07:05:10;13.4;72.9
78541;SHT31;67835;51.968;5.646;2023-11-19T07:07:41;13.4;73.1
78541;SHT31;67835;51.968;5.646;2023-11-19T07:10:10;13.4;73.1
78541;SHT31;67835;51.968;5.646;2023-11-19T07:12:39;13.4;73.1
78541;SHT31;67835;51.968;5.646;2023-11-19T07:15:09;13.4;72.9
78541;SHT31;67835;51.968;5.646;2023-11-19T07:17:39;13.4;72.8
78541;SHT31;67835;51.968;5.646;2023-11-19T07:20:12;13.4;72.7
78541;SHT31;67835;51.968;5.646;2023-11-19T07:22:42;13.4;72.7
78541;SHT31;67835;51.968;5.646;2023-11-19T07:25:12;13.4;72.6
78541;SHT31;67835;51.968;5.646;2023-11-19T07:27:42;13.4;72.6
78541;SHT31;67835;51.968;5.646;2023-11-19T07:30:11;13.4;72.6
78541;SHT31;67835;51.968;5.646;2023-11-19T07:32:40;13.4;72.6
78541;SHT31;67835;51.968;5.646;2023-11-19T07:35:10;13.5;72.6
78541;SHT31;67835;51.968;5.646;2023-11-19T07:37:38;13.5;72.6
78541;SHT31;67835;51.968;5.646;2023-11-19T07:40:11;13.5;72.6
78541;SHT31;67835;51.968;5.646;2023-11-19T07:42:40;13.5;72.7
78541;SHT31;67835;51.968;5.646;2023-11-19T07:45:10;13.6;72.6
78541;SHT31;67835;51.968;5.646;2023-11-19T07:47:38;13.6;72.3
78541;SHT31;67835;51.968;5.646;2023-11-19T07:50:07;13.6;72.2
78541;SHT31;67835;51.968;5.646;2023-11-19T07:52:37;13.7;72.2
78541;SHT31;67835;51.968;5.646;2023-11-19T07:55:07;13.7;72.1
78541;SHT31;67835;51.968;5.646;2023-11-19T07:57:36;13.7;72.2
78541;SHT31;67835;51.968;5.646;2023-11-19T08:00:06;13.8;72.1
78541;SHT31;67835;51.968;5.646;2023-11-19T08:02:38;13.8;71.7
78541;SHT31;67835;51.968;5.646;2023-11-19T08:05:08;13.9;71.2
78541;SHT31;67835;51.968;5.646;2023-11-19T08:07:38;13.9;71.2
78541;SHT31;67835;51.968;5.646;2023-11-19T08:10:07;14.0;70.8
78541;SHT31;67835;51.968;5.646;2023-11-19T08:12:37;14.0;70.9
78541;SHT31;67835;51.968;5.646;2023-11-19T08:15:07;14.1;70.7
78541;SHT31;67835;51.968;5.646;2023-11-19T08:17:37;14.1;70.5
78541;SHT31;67835;51.968;5.646;2023-11-19T08:20:07;14.2;70.4
78541;SHT31;67835;51.968;5.646;2023-11-19T08:22:37;14.3;69.8
78541;SHT31;67835;51.968;5.646;2023-11-19T08:25:07;14.3;69.6
78541;SHT31;67835;51.968;5.646;2023-11-19T08:27:36;14.4;69.7
78541;SHT31;67835;51.968;5.646;2023-11-19T08:30:06;14.4;69.1
78541;SHT31;67835;51.968;5.646;2023-11-19T08:32:35;14.5;69.0
78541;SHT31;67835;51.968;5.646;2023-11-19T08:35:04;14.6;68.2
78541;SHT31;67835;51.968;5.646;2023-11-19T08:37:34;14.6;68.3
78541;SHT31;67835;51.968;5.646;2023-11-19T08:40:04;14.7;68.2
78541;SHT31;67835;51.968;5.646;2023-11-19T08:42:33;14.7;67.8
78541;SHT31;67835;51.968;5.646;2023-11-19T08:45:03;14.8;67.5
78541;SHT31;67835;51.968;5.646;2023-11-19T08:47:32;14.9;67.2
78541;SHT31;67835;51.968;5.646;2023-11-19T08:50:01;15.0;67.1
78541;SHT31;67835;51.968;5.646;2023-11-19T08:52:31;15.0;66.4
78541;SHT31;67835;51.968;5.646;2023-11-19T08:54:59;15.1;66.2
78541;SHT31;67835;51.968;5.646;2023-11-19T08:57:28;15.2;66.0
78541;SHT31;67835;51.968;5.646;2023-11-19T08:59:57;15.3;65.8
78541;SHT31;67835;51.968;5.646;2023-11-19T09:02:25;15.3;65.7
78541;SHT31;67835;51.968;5.646;2023-11-19T09:04:54;15.4;65.5
78541;SHT31;67835;51.968;5.646;2023-11-19T09:07:22;15.6;64.5
78541;SHT31;67835;51.968;5.646;2023-11-19T09:09:51;15.8;64.1
78541;SHT31;67835;51.968;5.646;2023-11-19T09:12:20;16.0;63.5
78541;SHT31;67835;51.968;5.646;2023-11-19T09:14:48;16.1;63.0
78541;SHT31;67835;51.968;5.646;2023-11-19T09:17:17;16.3;62.4
78541;SHT31;67835;51.968;5.646;2023-11-19T09:19:46;16.4;61.9
78541;SHT31;67835;51.968;5.646;2023-11-19T09:22:14;16.4;61.9
78541;SHT31;67835;51.968;5.646;2023-11-19T09:24:43;16.5;61.3
78541;SHT31;67835;51.968;5.646;2023-11-19T09:27:12;16.5;61.2
78541;SHT31;67835;51.968;5.646;2023-11-19T09:29:40;16.5;61.5
78541;SHT31;67835;51.968;5.646;2023-11-19T09:32:11;16.6;61.1
78541;SHT31;67835;51.968;5.646;2023-11-19T09:34:39;16.7;60.9
78541;SHT31;67835;51.968;5.646;2023-11-19T09:37:08;16.8;60.5
78541;SHT31;67835;51.968;5.646;2023-11-19T09:39:36;16.8;59.9
78541;SHT31;67835;51.968;5.646;2023-11-19T09:42:05;16.8;60.0
78541;SHT31;67835;51.968;5.646;2023-11-19T09:44:34;16.9;60.6
78541;SHT31;67835;51.968;5.646;2023-11-19T09:47:04;16.9;60.8
78541;SHT31;67835;51.968;5.646;2023-11-19T09:49:36;17.1;60.2
78541;SHT31;67835;51.968;5.646;2023-11-19T09:52:08;17.3;60.1
78541;SHT31;67835;51.968;5.646;2023-11-19T09:54:36;17.6;58.4
78541;SHT31;67835;51.968;5.646;2023-11-19T09:57:07;17.9;57.8
78541;SHT31;67835;51.968;5.646;2023-11-19T09:59:38;18.0;56.7
78541;SHT31;67835;51.968;5.646;2023-11-19T10:02:09;18.0;56.0
78541;SHT31;67835;51.968;5.646;2023-11-19T10:04:41;18.1;55.7
78541;SHT31;67835;51.968;5.646;2023-11-19T10:07:12;18.0;55.9
78541;SHT31;67835;51.968;5.646;2023-11-19T10:09:41;18.0;55.8
78541;SHT31;67835;51.968;5.646;2023-11-19T10:12:10;17.9;56.7
78541;SHT31;67835;51.968;5.646;2023-11-19T10:14:40;17.8;56.4
78541;SHT31;67835;51.968;5.646;2023-11-19T10:17:10;17.7;56.8
78541;SHT31;67835;51.968;5.646;2023-11-19T10:19:39;17.6;56.7
78541;SHT31;67835;51.968;5.646;2023-11-19T10:22:10;17.5;57.3
78541;SHT31;67835;51.968;5.646;2023-11-19T10:24:41;17.5;56.9
78541;SHT31;67835;51.968;5.646;2023-11-19T10:27:09;17.4;57.6
78541;SHT31;67835;51.968;5.646;2023-11-19T10:29:39;17.3;57.2
78541;SHT31;67835;51.968;5.646;2023-11-19T10:32:07;17.2;57.9
78541;SHT31;67835;51.968;5.646;2023-11-19T10:34:36;17.2;58.6
78541;SHT31;67835;51.968;5.646;2023-11-19T10:37:06;17.3;58.2
78541;SHT31;67835;51.968;5.646;2023-11-19T10:39:53;17.5;58.2
78541;SHT31;67835;51.968;5.646;2023-11-19T10:42:22;17.8;57.8
78541;SHT31;67835;51.968;5.646;2023-11-19T10:44:51;18.2;56.6
78541;SHT31;67835;51.968;5.646;2023-11-19T10:47:22;18.7;55.2
78541;SHT31;67835;51.968;5.646;2023-11-19T10:49:52;19.3;52.8
78541;SHT31;67835;51.968;5.646;2023-11-19T10:52:21;19.7;52.1
78541;SHT31;67835;51.968;5.646;2023-11-19T10:54:51;20.1;50.5
78541;SHT31;67835;51.968;5.646;2023-11-19T10:57:21;20.4;49.8
78541;SHT31;67835;51.968;5.646;2023-11-19T10:59:52;20.5;48.8
78541;SHT31;67835;51.968;5.646;2023-11-19T11:02:25;20.6;49.9
78541;SHT31;67835;51.968;5.646;2023-11-19T11:04:55;20.8;49.3
78541;SHT31;67835;51.968;5.646;2023-11-19T11:07:25;21.0;48.9
78541;SHT31;67835;51.968;5.646;2023-11-19T11:09:55;21.2;47.7
78541;SHT31;67835;51.968;5.646;2023-11-19T11:12:25;21.3;47.6
78541;SHT31;67835;51.968;5.646;2023-11-19T11:14:55;21.4;46.9
78541;SHT31;67835;51.968;5.646;2023-11-19T11:17:28;21.5;45.8
78541;SHT31;67835;51.968;5.646;2023-11-19T11:20:00;21.4;45.6
78541;SHT31;67835;51.968;5.646;2023-11-19T11:22:39;21.3;46.1
78541;SHT31;67835;51.968;5.646;2023-11-19T11:25:23;21.1;47.0
78541;SHT31;67835;51.968;5.646;2023-11-19T11:28:07;20.8;47.3
78541;SHT31;67835;51.968;5.646;2023-11-19T11:30:49;20.5;48.3
78541;SHT31;67835;51.968;5.646;2023-11-19T11:33:36;20.2;48.8
78541;SHT31;67835;51.968;5.646;2023-11-19T11:36:16;19.9;49.4
78541;SHT31;67835;51.968;5.646;2023-11-19T11:38:49;19.7;50.2
78541;SHT31;67835;51.968;5.646;2023-11-19T11:41:24;19.5;51.2
78541;SHT31;67835;51.968;5.646;2023-11-19T11:43:53;19.3;51.1
78541;SHT31;67835;51.968;5.646;2023-11-19T11:46:57;19.2;51.7
78541;SHT31;67835;51.968;5.646;2023-11-19T11:49:29;19.0;52.7
78541;SHT31;67835;51.968;5.646;2023-11-19T11:52:04;19.0;53.0
78541;SHT31;67835;51.968;5.646;2023-11-19T11:54:36;18.9;51.9
78541;SHT31;67835;51.968;5.646;2023-11-19T11:57:14;18.8;52.4
78541;SHT31;67835;51.968;5.646;2023-11-19T11:59:47;18.8;53.7
78541;SHT31;67835;51.968;5.646;2023-11-19T12:02:18;18.8;53.1
78541;SHT31;67835;51.968;5.646;2023-11-19T12:04:52;18.9;52.9
78541;SHT31;67835;51.968;5.646;2023-11-19T12:07:24;18.9;52.2
78541;SHT31;67835;51.968;5.646;2023-11-19T12:10:06;18.9;52.2
78541;SHT31;67835;51.968;5.646;2023-11-19T12:12:28;18.8;52.7
78541;SHT31;67835;51.968;5.646;2023-11-19T12:15:04;18.8;53.3
78541;SHT31;67835;51.968;5.646;2023-11-19T12:17:48;18.9;53.0
78541;SHT31;67835;51.968;5.646;2023-11-19T12:20:20;19.0;52.4
78541;SHT31;67835;51.968;5.646;2023-11-19T12:22:50;19.1;52.2
78541;SHT31;67835;51.968;5.646;2023-11-19T12:25:20;19.1;52.1
78541;SHT31;67835;51.968;5.646;2023-11-19T12:27:51;19.1;52.3
78541;SHT31;67835;51.968;5.646;2023-11-19T12:30:24;19.2;52.0
78541;SHT31;67835;51.968;5.646;2023-11-19T12:32:56;19.2;51.8
78541;SHT31;67835;51.968;5.646;2023-11-19T12:35:24;19.2;51.4
78541;SHT31;67835;51.968;5.646;2023-11-19T12:37:53;19.3;51.3
78541;SHT31;67835;51.968;5.646;2023-11-19T12:40:24;19.3;51.3
78541;SHT31;67835;51.968;5.646;2023-11-19T12:42:56;19.2;51.8
78541;SHT31;67835;51.968;5.646;2023-11-19T12:45:36;19.2;50.8
78541;SHT31;67835;51.968;5.646;2023-11-19T12:48:07;19.2;51.8
78541;SHT31;67835;51.968;5.646;2023-11-19T12:50:52;19.1;51.0
78541;SHT31;67835;51.968;5.646;2023-11-19T12:53:23;19.1;51.4
78541;SHT31;67835;51.968;5.646;2023-11-19T12:55:53;19.1;51.5
78541;SHT31;67835;51.968;5.646;2023-11-19T12:58:30;19.1;51.3
78541;SHT31;67835;51.968;5.646;2023-11-19T13:01:04;19.1;51.5
78541;SHT31;67835;51.968;5.646;2023-11-19T13:03:35;19.0;51.4
78541;SHT31;67835;51.968;5.646;2023-11-19T13:06:07;19.0;51.7
78541;SHT31;67835;51.968;5.646;2023-11-19T13:08:39;18.9;51.8
78541;SHT31;67835;51.968;5.646;2023-11-19T13:11:09;18.8;52.4
78541;SHT31;67835;51.968;5.646;2023-11-19T13:13:58;18.8;52.7
78541;SHT31;67835;51.968;5.646;2023-11-19T13:16:28;18.6;52.7
78541;SHT31;67835;51.968;5.646;2023-11-19T13:18:58;18.6;53.1
78541;SHT31;67835;51.968;5.646;2023-11-19T13:21:27;18.5;53.8
78541;SHT31;67835;51.968;5.646;2023-11-19T13:23:57;18.4;54.5
78541;SHT31;67835;51.968;5.646;2023-11-19T13:26:28;18.3;54.3
78541;SHT31;67835;51.968;5.646;2023-11-19T13:28:56;18.3;54.5
78541;SHT31;67835;51.968;5.646;2023-11-19T13:31:25;18.2;54.8
78541;SHT31;67835;51.968;5.646;2023-11-19T13:33:54;18.1;54.9
78541;SHT31;67835;51.968;5.646;2023-11-19T13:36:25;18.0;55.5
78541;SHT31;67835;51.968;5.646;2023-11-19T13:38:54;17.9;55.4
78541;SHT31;67835;51.968;5.646;2023-11-19T13:41:25;17.8;55.4
78541;SHT31;67835;51.968;5.646;2023-11-19T13:43:55;17.8;55.7
78541;SHT31;67835;51.968;5.646;2023-11-19T13:46:24;17.7;56.4
78541;SHT31;67835;51.968;5.646;2023-11-19T13:48:52;17.6;56.9
78541;SHT31;67835;51.968;5.646;2023-11-19T13:51:20;17.5;57.5
78541;SHT31;67835;51.968;5.646;2023-11-19T13:53:49;17.4;58.2
78541;SHT31;67835;51.968;5.646;2023-11-19T13:56:17;17.4;57.8
78541;SHT31;67835;51.968;5.646;2023-11-19T13:58:46;17.3;59.4
78541;SHT31;67835;51.968;5.646;2023-11-19T14:01:15;17.2;60.3
78541;SHT31;67835;51.968;5.646;2023-11-19T14:03:43;17.2;60.5
78541;SHT31;67835;51.968;5.646;2023-11-19T14:06:12;17.1;60.0
78541;SHT31;67835;51.968;5.646;2023-11-19T14:08:41;17.1;60.3
78541;SHT31;67835;51.968;5.646;2023-11-19T14:11:11;17.1;60.2
78541;SHT31;67835;51.968;5.646;2023-11-19T14:13:39;17.2;59.5
78541;SHT31;67835;51.968;5.646;2023-11-19T14:16:08;17.2;58.9
78541;SHT31;67835;51.968;5.646;2023-11-19T14:18:40;17.2;59.4
78541;SHT31;67835;51.968;5.646;2023-11-19T14:21:11;17.2;58.4
78541;SHT31;67835;51.968;5.646;2023-11-19T14:23:39;17.2;58.7
78541;SHT31;67835;51.968;5.646;2023-11-19T14:26:08;17.2;58.0
78541;SHT31;67835;51.968;5.646;2023-11-19T14:28:36;17.2;58.2
78541;SHT31;67835;51.968;5.646;2023-11-19T14:31:07;17.1;58.2
78541;SHT31;67835;51.968;5.646;2023-11-19T14:33:35;17.0;58.5
78541;SHT31;67835;51.968;5.646;2023-11-19T14:36:05;16.9;58.8
78541;SHT31;67835;51.968;5.646;2023-11-19T14:38:34;16.8;58.7
78541;SHT31;67835;51.968;5.646;2023-11-19T14:41:03;16.7;58.9
78541;SHT31;67835;51.968;5.646;2023-11-19T14:43:31;16.6;59.2
78541;SHT31;67835;51.968;5.646;2023-11-19T14:46:00;16.5;59.5
78541;SHT31;67835;51.968;5.646;2023-11-19T14:48:30;16.4;59.9
78541;SHT31;67835;51.968;5.646;2023-11-19T14:50:58;16.3;60.4
78541;SHT31;67835;51.968;5.646;2023-11-19T14:53:28;16.3;60.9
78541;SHT31;67835;51.968;5.646;2023-11-19T14:55:56;16.2;61.0
78541;SHT31;67835;51.968;5.646;2023-11-19T14:58:25;16.1;61.4
78541;SHT31;67835;51.968;5.646;2023-11-19T15:00:53;16.0;61.6
78541;SHT31;67835;51.968;5.646;2023-11-19T15:03:22;16.0;61.9
78541;SHT31;67835;51.968;5.646;2023-11-19T15:05:51;15.9;62.0
78541;SHT31;67835;51.968;5.646;2023-11-19T15:08:19;15.9;62.3
78541;SHT31;67835;51.968;5.646;2023-11-19T15:10:50;15.8;62.2
78541;SHT31;67835;51.968;5.646;2023-11-19T15:13:19;15.8;62.6
78541;SHT31;67835;51.968;5.646;2023-11-19T15:15:48;15.8;62.6
78541;SHT31;67835;51.968;5.646;2023-11-19T15:18:16;15.7;62.7
78541;SHT31;67835;51.968;5.646;2023-11-19T15:20:45;15.7;62.7
78541;SHT31;67835;51.968;5.646;2023-11-19T15:23:15;15.7;63.0
78541;SHT31;67835;51.968;5.646;2023-11-19T15:25:45;15.7;62.8
78541;SHT31;67835;51.968;5.646;2023-11-19T15:28:16;15.7;62.9
78541;SHT31;67835;51.968;5.646;2023-11-19T15:30:45;15.6;63.2
78541;SHT31;67835;51.968;5.646;2023-11-19T15:33:14;15.6;63.2
78541;SHT31;67835;51.968;5.646;2023-11-19T15:35:43;15.6;63.3
78541;SHT31;67835;51.968;5.646;2023-11-19T15:38:12;15.6;63.4
78541;SHT31;67835;51.968;5.646;2023-11-19T15:40:40;15.6;63.5
78541;SHT31;67835;51.968;5.646;2023-11-19T15:43:09;15.5;63.8
78541;SHT31;67835;51.968;5.646;2023-11-19T15:45:38;15.5;63.9
78541;SHT31;67835;51.968;5.646;2023-11-19T15:48:07;15.5;64.0
78541;SHT31;67835;51.968;5.646;2023-11-19T15:50:37;15.4;64.2
78541;SHT31;67835;51.968;5.646;2023-11-19T15:53:05;15.4;64.6
78541;SHT31;67835;51.968;5.646;2023-11-19T15:55:34;15.4;65.0
78541;SHT31;67835;51.968;5.646;2023-11-19T15:58:03;15.3;65.2
78541;SHT31;67835;51.968;5.646;2023-11-19T16:00:32;15.3;65.6
78541;SHT31;67835;51.968;5.646;2023-11-19T16:03:01;15.3;65.7
78541;SHT31;67835;51.968;5.646;2023-11-19T16:05:29;15.2;65.7
78541;SHT31;67835;51.968;5.646;2023-11-19T16:07:58;15.2;65.8
78541;SHT31;67835;51.968;5.646;2023-11-19T16:10:29;15.2;66.0
78541;SHT31;67835;51.968;5.646;2023-11-19T16:12:58;15.2;66.1
78541;SHT31;67835;51.968;5.646;2023-11-19T16:15:27;15.1;65.9
78541;SHT31;67835;51.968;5.646;2023-11-19T16:17:55;15.1;65.7
78541;SHT31;67835;51.968;5.646;2023-11-19T16:20:26;15.1;65.7